Time;durP1;ratioP1;P1;durP2;ratioP2;P2;SDS_P1;SDS_P2;PMS_P1;PMS_P2;Temp;Humidity;BMP_temperature;BMP_pressure;BME280_temperature;BME280_humidity;BME280_pressure;Samples;Min_cycle;Max_cycle;Signal;HPM_P1;HPM_P2
2023/07/09 00:01:51;;;;;;;6.17;3.67;;;22.80;99.90;;;;;;5011304;28;20207;-61
2023/07/09 00:04:19;;;;;;;6.13;3.40;;;22.80;99.90;;;;;;5009708;28;20570;-60
2023/07/09 00:06:47;;;;;;;3.13;2.93;;;22.80;99.90;;;;;;5010154;28;20353;-60
2023/07/09 00:09:16;;;;;;;4.03;3.53;;;22.80;99.90;;;;;;5009996;28;20250;-60
2023/07/09 00:11:43;;;;;;;5.07;3.53;;;22.70;99.90;;;;;;5001497;28;20206;-60
2023/07/09 00:14:11;;;;;;;3.60;3.30;;;22.60;99.90;;;;;;5009875;28;20199;-60
2023/07/09 00:16:39;;;;;;;2.80;2.70;;;22.60;99.90;;;;;;5009158;28;20235;-61
2023/07/09 00:19:06;;;;;;;3.33;3.07;;;22.50;99.90;;;;;;5010019;28;20297;-61
2023/07/09 00:21:34;;;;;;;4.47;4.17;;;22.50;99.90;;;;;;5009577;28;20265;-60
2023/07/09 00:24:04;;;;;;;4.10;3.20;;;22.50;99.90;;;;;;5007923;28;20205;-60
2023/07/09 00:26:32;;;;;;;4.70;3.67;;;22.50;99.90;;;;;;5009810;28;20241;-60
2023/07/09 00:28:59;;;;;;;5.57;3.93;;;22.50;99.90;;;;;;5008635;28;20199;-60
2023/07/09 00:31:26;;;;;;;4.20;3.83;;;22.40;99.90;;;;;;5010934;28;20257;-61
2023/07/09 00:33:55;;;;;;;4.27;4.07;;;22.30;99.90;;;;;;5007540;28;21080;-60
2023/07/09 00:36:27;;;;;;;3.27;3.07;;;22.30;99.90;;;;;;5010334;28;20223;-61
2023/07/09 00:38:54;;;;;;;4.23;3.93;;;22.20;99.90;;;;;;5007170;28;20274;-61
2023/07/09 00:41:24;;;;;;;3.47;3.00;;;22.10;99.90;;;;;;5009580;28;20203;-60
2023/07/09 00:43:53;;;;;;;3.93;3.73;;;22.00;99.90;;;;;;5008173;28;20199;-60
2023/07/09 00:47:00;;;;;;;4.67;3.57;;;22.00;99.90;;;;;;5010699;28;20277;-60
2023/07/09 00:49:32;;;;;;;3.20;3.00;;;21.90;99.90;;;;;;5010064;28;20222;-60
2023/07/09 00:52:03;;;;;;;3.90;3.70;;;21.90;99.90;;;;;;5009639;28;20755;-60
2023/07/09 00:54:36;;;;;;;3.23;3.03;;;21.90;99.90;;;;;;5010440;28;20230;-60
2023/07/09 00:57:10;;;;;;;4.07;3.33;;;21.80;99.90;;;;;;5011032;28;20689;-60
2023/07/09 00:59:38;;;;;;;4.00;3.60;;;21.80;99.90;;;;;;5009440;28;20220;-60
2023/07/09 01:02:08;;;;;;;4.33;4.03;;;21.80;99.90;;;;;;5007999;28;20207;-60
2023/07/09 01:04:36;;;;;;;5.90;3.77;;;21.80;99.90;;;;;;5009868;28;20223;-60
2023/07/09 01:07:03;;;;;;;5.03;3.57;;;21.70;99.90;;;;;;5011334;28;20211;-60
2023/07/09 01:09:30;;;;;;;3.63;3.33;;;21.70;99.90;;;;;;5011144;28;20204;-60
2023/07/09 01:12:00;;;;;;;5.73;4.53;;;21.70;99.90;;;;;;5013121;28;20203;-60
2023/07/09 01:14:29;;;;;;;3.70;3.43;;;21.70;99.90;;;;;;5013668;28;20333;-60
2023/07/09 01:17:01;;;;;;;3.77;3.47;;;21.60;99.90;;;;;;5011519;28;20203;-60
2023/07/09 01:19:30;;;;;;;6.37;4.03;;;21.70;99.90;;;;;;5006260;28;20288;-60
2023/07/09 01:22:00;;;;;;;3.97;3.67;;;21.70;99.90;;;;;;5012553;28;20211;-60
2023/07/09 01:24:51;;;;;;;6.57;3.43;;;21.70;99.90;;;;;;5011913;28;20207;-61
2023/07/09 01:27:20;;;;;;;3.07;2.97;;;21.70;99.90;;;;;;5013319;28;20203;-60
2023/07/09 01:29:48;;;;;;;3.50;3.20;;;21.70;99.90;;;;;;5012049;28;20564;-60
2023/07/09 01:32:17;;;;;;;3.53;3.33;;;21.70;99.90;;;;;;5009949;28;20249;-60
2023/07/09 01:34:44;;;;;;;3.77;3.47;;;21.70;99.90;;;;;;5011341;28;20223;-60
2023/07/09 01:37:12;;;;;;;3.30;3.10;;;21.70;99.90;;;;;;5010698;28;20558;-60
2023/07/09 01:39:40;;;;;;;5.07;3.67;;;21.70;99.90;;;;;;5012239;28;20258;-60
2023/07/09 01:42:08;;;;;;;3.80;3.50;;;21.70;99.90;;;;;;5012395;28;20250;-60
2023/07/09 01:44:36;;;;;;;3.00;2.67;;;21.60;99.90;;;;;;5009683;28;20223;-59
2023/07/09 01:47:04;;;;;;;4.63;3.00;;;21.60;99.90;;;;;;5012103;28;20226;-59
2023/07/09 01:49:32;;;;;;;3.10;2.93;;;21.60;99.90;;;;;;5012335;28;20200;-60
2023/07/09 01:52:01;;;;;;;7.10;5.07;;;21.60;99.90;;;;;;5012218;28;20281;-60
2023/07/09 01:54:31;;;;;;;4.03;3.73;;;21.60;99.90;;;;;;5012113;28;20213;-60
2023/07/09 01:57:14;;;;;;;4.40;3.93;;;21.60;99.90;;;;;;5013278;28;20592;-60
2023/07/09 01:59:42;;;;;;;7.10;4.40;;;21.50;99.90;;;;;;5008561;28;20222;-60
2023/07/09 02:02:09;;;;;;;7.70;4.00;;;21.40;99.90;;;;;;4992817;28;20238;-61
2023/07/09 02:04:36;;;;;;;4.13;3.73;;;21.30;99.90;;;;;;5005246;28;20219;-60
2023/07/09 02:07:03;;;;;;;3.43;3.13;;;21.20;99.90;;;;;;5011879;28;20273;-61
2023/07/09 02:09:31;;;;;;;3.57;3.37;;;21.10;99.90;;;;;;5012144;28;20246;-60
2023/07/09 02:11:58;;;;;;;3.53;3.33;;;21.10;99.90;;;;;;5011776;28;20314;-60
2023/07/09 02:14:25;;;;;;;4.67;3.77;;;21.00;99.90;;;;;;5012495;28;20764;-60
2023/07/09 02:16:52;;;;;;;3.53;3.33;;;21.00;99.90;;;;;;5011469;28;20207;-60
2023/07/09 02:19:19;;;;;;;2.90;2.80;;;21.00;99.90;;;;;;5009866;28;20219;-60
2023/07/09 02:21:46;;;;;;;4.43;3.87;;;20.90;99.90;;;;;;5012670;28;20514;-60
2023/07/09 02:24:13;;;;;;;4.13;3.73;;;21.00;99.90;;;;;;5012470;28;20270;-60
2023/07/09 02:26:41;;;;;;;4.70;4.30;;;21.10;99.90;;;;;;5008788;28;20312;-60
2023/07/09 02:29:08;;;;;;;3.87;3.60;;;21.10;99.90;;;;;;5012264;28;20195;-60
2023/07/09 02:31:35;;;;;;;3.23;2.73;;;21.10;99.90;;;;;;5010847;28;20207;-59
2023/07/09 02:34:02;;;;;;;3.57;3.37;;;21.00;99.90;;;;;;5009722;28;20266;-60
2023/07/09 02:36:29;;;;;;;3.80;3.63;;;21.00;99.90;;;;;;5012472;28;20717;-60
2023/07/09 02:38:56;;;;;;;4.80;4.33;;;21.00;99.90;;;;;;5010013;28;20261;-61
2023/07/09 02:41:23;;;;;;;4.00;3.17;;;20.90;99.90;;;;;;5006868;28;20290;-60
2023/07/09 02:43:52;;;;;;;5.17;4.67;;;20.90;99.90;;;;;;5008511;28;20210;-60
2023/07/09 02:46:19;;;;;;;3.23;2.90;;;21.00;99.90;;;;;;5008975;28;20277;-60
2023/07/09 02:48:45;;;;;;;3.67;3.37;;;21.00;99.90;;;;;;5012532;28;20195;-60
2023/07/09 02:51:12;;;;;;;3.10;2.90;;;20.90;99.90;;;;;;5011935;28;20257;-60
2023/07/09 02:53:39;;;;;;;3.63;3.43;;;20.90;99.90;;;;;;5005602;28;20196;-60
2023/07/09 02:56:06;;;;;;;3.10;3.00;;;20.90;99.90;;;;;;5004812;28;20696;-60
2023/07/09 02:58:33;;;;;;;3.40;3.10;;;20.90;99.90;;;;;;5012278;28;20203;-60
2023/07/09 03:01:03;;;;;;;2.90;2.70;;;20.80;99.90;;;;;;5010867;28;20223;-60
2023/07/09 03:03:30;;;;;;;5.27;3.67;;;20.80;99.90;;;;;;5010165;28;20199;-60
2023/07/09 03:05:57;;;;;;;3.50;3.30;;;20.90;99.90;;;;;;5010979;28;20281;-61
2023/07/09 03:08:24;;;;;;;3.70;3.50;;;20.90;99.90;;;;;;5010532;28;20658;-60
2023/07/09 03:10:50;;;;;;;4.00;3.67;;;20.90;99.90;;;;;;5010368;28;20234;-60
2023/07/09 03:13:17;;;;;;;4.97;4.10;;;20.80;99.90;;;;;;5010855;28;20257;-60
2023/07/09 03:15:44;;;;;;;5.93;4.37;;;20.80;99.90;;;;;;5011467;28;20775;-60
2023/07/09 03:18:13;;;;;;;4.37;3.97;;;20.80;99.90;;;;;;5010510;28;20262;-60
2023/07/09 03:20:40;;;;;;;6.27;4.87;;;20.80;99.90;;;;;;5011722;28;20215;-60
2023/07/09 03:23:07;;;;;;;4.37;4.07;;;20.80;99.90;;;;;;5008987;28;20257;-59
2023/07/09 03:25:34;;;;;;;5.20;4.57;;;20.70;99.90;;;;;;5008593;28;20219;-60
2023/07/09 03:28:01;;;;;;;7.13;5.00;;;20.70;99.90;;;;;;5008582;28;20199;-60
2023/07/09 03:30:27;;;;;;;4.63;4.20;;;20.60;99.90;;;;;;5008615;28;20203;-61
2023/07/09 03:32:54;;;;;;;5.23;4.50;;;20.60;99.90;;;;;;5009965;28;20234;-60
2023/07/09 03:35:23;;;;;;;3.73;3.53;;;20.50;99.90;;;;;;5007050;28;20230;-60
2023/07/09 03:37:50;;;;;;;4.77;4.27;;;20.40;99.90;;;;;;5007374;28;20199;-59
2023/07/09 03:40:22;;;;;;;3.87;3.57;;;20.40;99.90;;;;;;5008194;28;20251;-60
2023/07/09 03:42:49;;;;;;;4.53;4.23;;;20.40;99.90;;;;;;5009118;28;20195;-60
2023/07/09 03:45:16;;;;;;;3.50;3.20;;;20.30;99.90;;;;;;5010133;28;20227;-60
2023/07/09 03:47:43;;;;;;;3.80;3.50;;;20.30;99.90;;;;;;5011225;28;20203;-60
2023/07/09 03:50:11;;;;;;;4.73;4.23;;;20.30;99.90;;;;;;5010435;28;20191;-61
2023/07/09 03:52:39;;;;;;;5.17;4.67;;;20.30;99.90;;;;;;5009532;28;20253;-60
2023/07/09 03:55:07;;;;;;;5.37;5.00;;;20.30;99.90;;;;;;5011008;28;20712;-61
2023/07/09 03:57:35;;;;;;;5.93;5.10;;;20.30;99.90;;;;;;5010523;28;20328;-60
2023/07/09 04:00:04;;;;;;;6.77;4.50;;;20.40;99.90;;;;;;5011269;28;20755;-60
2023/07/09 04:02:31;;;;;;;4.80;4.37;;;20.30;99.90;;;;;;5011176;28;20203;-60
2023/07/09 04:04:58;;;;;;;4.67;3.63;;;20.30;99.90;;;;;;5007802;28;20278;-60
2023/07/09 04:07:25;;;;;;;4.00;3.70;;;20.30;99.90;;;;;;5009504;28;20230;-60
2023/07/09 04:09:53;;;;;;;5.03;3.73;;;20.30;99.90;;;;;;5011201;28;20195;-60
2023/07/09 04:12:20;;;;;;;5.10;4.67;;;20.30;99.90;;;;;;5011135;28;20253;-60
2023/07/09 04:14:47;;;;;;;12.07;4.40;;;20.30;99.90;;;;;;5008528;28;20332;-60
2023/07/09 04:17:14;;;;;;;5.17;4.80;;;20.30;99.90;;;;;;5006225;28;20226;-60
2023/07/09 04:19:41;;;;;;;4.03;3.83;;;20.30;99.90;;;;;;5001063;28;20312;-60
2023/07/09 04:22:09;;;;;;;4.53;4.13;;;20.40;99.90;;;;;;4996353;28;20639;-60
2023/07/09 04:24:36;;;;;;;8.40;4.37;;;20.40;99.90;;;;;;4999107;28;20220;-60
2023/07/09 04:27:05;;;;;;;4.20;3.87;;;20.50;99.90;;;;;;5002890;28;20589;-61
2023/07/09 04:29:35;;;;;;;6.00;4.03;;;20.50;99.90;;;;;;5007167;28;20199;-60
2023/07/09 04:32:02;;;;;;;4.27;3.90;;;20.70;99.90;;;;;;5005891;28;20203;-60
2023/07/09 04:34:29;;;;;;;3.60;3.30;;;20.80;99.90;;;;;;4995282;28;20235;-60
2023/07/09 04:36:56;;;;;;;4.40;4.13;;;20.90;99.90;;;;;;5003435;28;20196;-60
2023/07/09 04:39:23;;;;;;;4.10;3.80;;;20.90;99.90;;;;;;4999741;28;20204;-60
2023/07/09 04:41:50;;;;;;;4.10;3.80;;;21.00;99.90;;;;;;5001414;28;20226;-60
2023/07/09 04:44:18;;;;;;;4.37;4.07;;;21.10;99.90;;;;;;4997814;28;20200;-60
2023/07/09 04:46:45;;;;;;;4.47;4.07;;;21.10;99.90;;;;;;5050607;23;20222;-53
2023/07/09 04:49:12;;;;;;;5.63;4.10;;;21.20;99.90;;;;;;5032590;28;20195;-52
2023/07/09 04:51:39;;;;;;;5.30;4.80;;;21.20;99.90;;;;;;5034293;28;20619;-53
2023/07/09 04:54:06;;;;;;;6.90;4.13;;;21.40;99.90;;;;;;5033958;28;20256;-52
2023/07/09 04:56:33;;;;;;;6.33;3.83;;;21.40;99.90;;;;;;5026248;28;20597;-53
2023/07/09 04:59:00;;;;;;;3.60;3.30;;;21.50;99.90;;;;;;5025611;28;20265;-53
2023/07/09 05:01:29;;;;;;;5.93;3.80;;;21.60;99.90;;;;;;5025289;28;20288;-53
2023/07/09 05:03:56;;;;;;;7.10;3.93;;;21.70;99.90;;;;;;5024866;28;20195;-53
2023/07/09 05:06:22;;;;;;;4.23;3.70;;;21.80;99.90;;;;;;5025974;28;20604;-53
2023/07/09 05:08:49;;;;;;;4.10;3.80;;;21.90;99.90;;;;;;5022135;28;20264;-53
2023/07/09 05:11:16;;;;;;;4.47;4.17;;;22.10;99.90;;;;;;5024837;28;20191;-53
2023/07/09 05:13:43;;;;;;;4.93;4.23;;;22.20;99.90;;;;;;5018484;28;20580;-54
2023/07/09 05:16:10;;;;;;;7.47;4.40;;;22.40;99.90;;;;;;5023061;28;20280;-53
2023/07/09 05:18:39;;;;;;;3.37;3.07;;;22.70;99.90;;;;;;5029612;28;20206;-53
2023/07/09 05:21:05;;;;;;;3.90;3.70;;;23.20;99.90;;;;;;5029312;28;20219;-53
2023/07/09 05:23:32;;;;;;;4.03;3.73;;;23.80;99.90;;;;;;5029048;28;20226;-52
2023/07/09 05:26:01;;;;;;;5.77;4.37;;;24.70;99.90;;;;;;5016826;28;20300;-53
2023/07/09 05:28:29;;;;;;;5.63;3.60;;;25.40;99.90;;;;;;5017798;28;20562;-53
2023/07/09 05:30:56;;;;;;;4.30;3.90;;;26.00;99.90;;;;;;5029532;28;20230;-53
2023/07/09 05:33:23;;;;;;;4.00;3.03;;;26.60;99.90;;;;;;5030507;28;20203;-53
2023/07/09 05:35:51;;;;;;;4.00;3.33;;;27.20;99.90;;;;;;5025079;28;20250;-53
2023/07/09 05:38:18;;;;;;;4.10;3.73;;;27.70;99.90;;;;;;5026370;28;20285;-53
2023/07/09 05:40:45;;;;;;;3.63;3.33;;;28.10;99.90;;;;;;5026805;28;20246;-53
2023/07/09 05:43:12;;;;;;;5.60;3.97;;;28.80;99.90;;;;;;5018519;28;20198;-53
2023/07/09 05:45:40;;;;;;;3.90;3.55;;;29.20;99.90;;;;;;5032195;28;20611;-52
2023/07/09 05:48:07;;;;;;;3.55;3.35;;;29.70;99.90;;;;;;5017474;28;20257;-54
2023/07/09 05:50:35;;;;;;;4.45;4.05;;;29.80;99.90;;;;;;5024502;28;20195;-53
2023/07/09 05:53:04;;;;;;;3.10;3.00;;;30.00;99.90;;;;;;5021188;28;20207;-53
2023/07/09 05:55:32;;;;;;;3.40;3.10;;;30.10;99.90;;;;;;5013066;28;20223;-54
2023/07/09 05:57:59;;;;;;;3.80;3.40;;;30.30;99.90;;;;;;5017636;28;20199;-53
2023/07/09 06:00:26;;;;;;;3.70;3.50;;;30.80;99.90;;;;;;5013436;28;20215;-53
2023/07/09 06:02:53;;;;;;;3.65;3.45;;;31.20;99.90;;;;;;5013048;28;20338;-54
2023/07/09 06:05:20;;;;;;;3.60;3.08;;;31.70;99.90;;;;;;5013132;28;20265;-54
2023/07/09 06:07:47;;;;;;;4.68;3.42;;;32.00;99.90;;;;;;5014600;28;20202;-54
2023/07/09 06:10:16;;;;;;;4.10;3.80;;;32.00;99.90;;;;;;5015659;28;20203;-54
2023/07/09 06:12:43;;;;;;;4.32;4.03;;;32.30;99.80;;;;;;5012597;28;20445;-53
2023/07/09 06:15:12;;;;;;;3.67;3.38;;;32.30;98.40;;;;;;5018893;28;20230;-53
2023/07/09 06:17:40;;;;;;;3.60;3.38;;;32.70;98.20;;;;;;5020248;28;20205;-54
2023/07/09 06:20:08;;;;;;;2.75;2.50;;;32.90;98.30;;;;;;5012552;28;20231;-53
2023/07/09 06:22:39;;;;;;;4.03;3.63;;;32.80;97.30;;;;;;5012350;28;20195;-53
2023/07/09 06:25:07;;;;;;;3.72;3.38;;;32.70;96.40;;;;;;5016703;28;20646;-56
2023/07/09 06:27:35;;;;;;;3.65;3.40;;;32.90;96.80;;;;;;5031030;28;20202;-53
2023/07/09 06:30:02;;;;;;;3.00;2.83;;;33.30;95.90;;;;;;5030520;28;20202;-55
2023/07/09 06:32:29;;;;;;;4.03;3.67;;;33.70;95.70;;;;;;5013762;28;20207;-56
2023/07/09 06:34:56;;;;;;;4.00;3.78;;;33.60;95.00;;;;;;5022060;28;20727;-57
2023/07/09 06:37:23;;;;;;;4.03;3.72;;;33.40;95.90;;;;;;5028658;28;20261;-56
2023/07/09 06:39:50;;;;;;;4.85;3.10;;;33.40;94.80;;;;;;5023351;28;20199;-56
2023/07/09 06:42:17;;;;;;;4.97;2.92;;;33.80;95.10;;;;;;5031275;28;20700;-56
2023/07/09 06:44:45;;;;;;;3.50;3.30;;;33.80;93.00;;;;;;5030617;28;20199;-55
2023/07/09 06:47:12;;;;;;;3.03;2.85;;;34.10;93.20;;;;;;5030172;28;20260;-55
2023/07/09 06:49:39;;;;;;;3.70;3.08;;;34.30;94.20;;;;;;5034425;28;20739;-55
2023/07/09 06:52:07;;;;;;;3.47;3.00;;;34.30;93.00;;;;;;5034582;28;20257;-56
2023/07/09 06:54:34;;;;;;;3.10;2.95;;;33.90;92.50;;;;;;5031467;28;20252;-55
2023/07/09 06:57:01;;;;;;;3.17;3.08;;;33.60;92.90;;;;;;5031335;28;20283;-55
2023/07/09 06:59:28;;;;;;;3.85;3.65;;;33.10;93.40;;;;;;5031446;28;20225;-55
2023/07/09 07:01:56;;;;;;;4.50;4.20;;;32.90;93.60;;;;;;5031374;28;20320;-55
2023/07/09 07:04:23;;;;;;;3.55;3.30;;;33.30;93.10;;;;;;5028093;28;20264;-55
2023/07/09 07:06:50;;;;;;;3.92;3.55;;;33.10;92.20;;;;;;5029870;28;20272;-61
2023/07/09 07:09:17;;;;;;;12.15;3.88;;;33.20;92.90;;;;;;5031226;28;20198;-62
2023/07/09 07:11:44;;;;;;;3.53;3.22;;;33.10;92.80;;;;;;5030695;28;20199;-62
2023/07/09 07:14:10;;;;;;;2.97;2.78;;;33.10;93.80;;;;;;5031711;28;20568;-63
2023/07/09 07:16:37;;;;;;;3.15;2.95;;;33.40;93.00;;;;;;5026432;28;20320;-62
2023/07/09 07:19:06;;;;;;;3.63;3.33;;;33.70;93.80;;;;;;5030482;28;20244;-63
2023/07/09 07:21:33;;;;;;;3.33;3.15;;;33.80;92.60;;;;;;5030968;28;20226;-65
2023/07/09 07:24:00;;;;;;;5.60;3.05;;;33.90;92.90;;;;;;5029984;28;20206;-67
2023/07/09 07:26:27;;;;;;;3.80;3.60;;;34.10;92.80;;;;;;5026640;28;20241;-65
2023/07/09 07:28:54;;;;;;;6.20;4.20;;;34.40;93.70;;;;;;5028189;28;20579;-66
2023/07/09 07:31:20;;;;;;;4.13;3.92;;;34.10;92.00;;;;;;5031398;28;20267;-65
2023/07/09 07:33:47;;;;;;;3.90;3.70;;;33.90;92.50;;;;;;5027268;28;20256;-62
2023/07/09 07:36:16;;;;;;;4.40;3.35;;;34.30;91.70;;;;;;5027361;28;20357;-64
2023/07/09 07:38:43;;;;;;;4.78;4.22;;;34.50;92.80;;;;;;5018688;28;20203;-63
2023/07/09 07:41:10;;;;;;;4.18;3.88;;;34.90;92.30;;;;;;5011791;28;20211;-62
2023/07/09 07:43:37;;;;;;;3.83;3.47;;;35.30;91.10;;;;;;5011046;28;20198;-63
2023/07/09 07:46:04;;;;;;;3.50;3.28;;;35.40;90.60;;;;;;5011237;28;20598;-61
2023/07/09 07:48:31;;;;;;;3.65;3.40;;;34.90;90.80;;;;;;5019700;28;20276;-61
2023/07/09 07:51:02;;;;;;;3.45;3.25;;;35.10;90.70;;;;;;5026153;28;20191;-63
2023/07/09 07:53:31;;;;;;;3.47;3.28;;;35.50;90.30;;;;;;5012232;28;20696;-63
2023/07/09 07:55:58;;;;;;;3.03;2.92;;;35.70;86.50;;;;;;5030432;28;20222;-63
2023/07/09 07:58:25;;;;;;;3.15;2.95;;;36.10;85.50;;;;;;5029576;28;20202;-64
2023/07/09 08:00:56;;;;;;;3.15;3.00;;;36.50;90.30;;;;;;5019336;28;20272;-65
2023/07/09 08:03:23;;;;;;;3.00;2.70;;;36.50;86.80;;;;;;5014116;28;20277;-64
2023/07/09 08:05:50;;;;;;;3.40;3.20;;;36.50;84.70;;;;;;5013664;28;20214;-65
2023/07/09 08:08:18;;;;;;;3.80;3.50;;;36.20;87.50;;;;;;5024789;28;20200;-66
2023/07/09 08:10:46;;;;;;;3.05;2.95;;;36.20;86.10;;;;;;5030460;28;20198;-64
2023/07/09 08:13:13;;;;;;;4.55;3.17;;;36.60;86.40;;;;;;5024052;28;20264;-63
2023/07/09 08:15:40;;;;;;;4.28;3.88;;;36.60;88.80;;;;;;5017758;28;20214;-68
2023/07/09 08:18:07;;;;;;;4.07;3.78;;;36.70;88.40;;;;;;5020460;28;20322;-68
2023/07/09 08:20:34;;;;;;;3.58;3.33;;;37.00;87.90;;;;;;5016234;28;20199;-69
2023/07/09 08:23:01;;;;;;;4.70;3.50;;;37.50;86.10;;;;;;5034164;28;20225;-67
2023/07/09 08:25:28;;;;;;;3.80;3.22;;;37.50;86.30;;;;;;5032661;28;20222;-64
2023/07/09 08:27:56;;;;;;;3.30;3.10;;;37.60;84.60;;;;;;5025815;28;20207;-66
2023/07/09 08:30:23;;;;;;;3.88;3.50;;;37.50;80.70;;;;;;5029344;28;20202;-65
2023/07/09 08:32:50;;;;;;;3.63;3.33;;;37.30;84.10;;;;;;5030934;28;20198;-65
2023/07/09 08:35:17;;;;;;;5.18;3.00;;;37.50;83.80;;;;;;5033140;28;20245;-64
2023/07/09 08:37:44;;;;;;;3.50;2.70;;;37.30;82.30;;;;;;5033360;28;20202;-67
2023/07/09 08:40:15;;;;;;;2.97;2.88;;;37.40;78.70;;;;;;5034400;28;20198;-63
2023/07/09 08:42:45;;;;;;;2.60;2.50;;;37.10;84.60;;;;;;5030259;28;20250;-63
2023/07/09 08:45:30;;;;;;;3.50;3.15;;;37.40;86.90;;;;;;5033897;28;20233;-68
2023/07/09 08:48:04;;;;;;;3.67;3.33;;;37.60;79.30;;;;;;5035352;28;20234;-68
2023/07/09 08:50:37;;;;;;;3.60;3.42;;;37.10;79.30;;;;;;5033438;28;20198;-66
2023/07/09 08:53:06;;;;;;;3.03;2.85;;;37.40;82.50;;;;;;5032904;28;20566;-65
2023/07/09 08:55:40;;;;;;;4.30;3.22;;;37.70;80.60;;;;;;5027379;28;20597;-65
2023/07/09 08:58:15;;;;;;;5.18;3.15;;;38.10;84.20;;;;;;5027202;28;20206;-65
2023/07/09 09:00:51;;;;;;;4.22;3.63;;;38.30;82.90;;;;;;5030723;28;20230;-63
2023/07/09 09:03:29;;;;;;;3.28;2.97;;;38.40;83.10;;;;;;5033730;28;20198;-63
2023/07/09 09:05:57;;;;;;;5.28;3.42;;;38.20;80.70;;;;;;5031645;28;20228;-66
2023/07/09 09:08:36;;;;;;;3.83;3.63;;;38.40;75.20;;;;;;5028901;28;20206;-64
2023/07/09 09:11:12;;;;;;;5.80;3.83;;;38.30;75.40;;;;;;5025759;28;20684;-59
2023/07/09 09:13:40;;;;;;;3.75;2.97;;;38.40;79.10;;;;;;5029639;28;20252;-60
2023/07/09 09:16:25;;;;;;;4.00;3.15;;;38.50;79.40;;;;;;5016989;28;20258;-61
2023/07/09 09:18:56;;;;;;;3.17;3.05;;;38.50;75.20;;;;;;5019022;28;20253;-63
2023/07/09 09:21:27;;;;;;;4.60;3.30;;;38.40;78.60;;;;;;5013693;28;20223;-61
2023/07/09 09:23:59;;;;;;;3.47;3.28;;;38.30;78.50;;;;;;5024074;28;20260;-62
2023/07/09 09:26:35;;;;;;;3.60;3.38;;;38.70;81.20;;;;;;5020434;28;20311;-61
2023/07/09 09:29:10;;;;;;;3.85;3.47;;;38.70;81.50;;;;;;5011746;28;20689;-61
2023/07/09 09:31:39;;;;;;;4.68;3.38;;;39.10;77.10;;;;;;5012483;28;20289;-66
2023/07/09 09:34:06;;;;;;;2.88;2.72;;;39.10;75.90;;;;;;5018791;28;20203;-61
2023/07/09 09:36:38;;;;;;;4.35;4.05;;;39.00;75.10;;;;;;5031261;28;20226;-62
2023/07/09 09:39:05;;;;;;;3.10;2.88;;;39.10;74.40;;;;;;5031944;28;20199;-63
2023/07/09 09:41:37;;;;;;;3.97;3.78;;;39.00;77.60;;;;;;5029175;28;20218;-61
2023/07/09 09:44:05;;;;;;;3.55;3.13;;;38.80;80.50;;;;;;5032976;28;20203;-63
2023/07/09 09:46:35;;;;;;;5.13;3.20;;;38.70;80.20;;;;;;5033564;28;20226;-59
2023/07/09 09:49:04;;;;;;;4.03;3.63;;;38.90;80.10;;;;;;5033804;28;20260;-60
2023/07/09 09:51:31;;;;;;;4.60;3.55;;;39.00;70.10;;;;;;5031754;28;20272;-59
2023/07/09 09:54:00;;;;;;;3.28;3.05;;;39.00;70.50;;;;;;5033165;28;20679;-60
2023/07/09 09:56:30;;;;;;;3.28;3.08;;;39.10;77.10;;;;;;5033609;28;20292;-60
2023/07/09 09:58:58;;;;;;;3.83;3.63;;;38.70;77.70;;;;;;5033368;28;20680;-58
2023/07/09 10:01:30;;;;;;;5.20;4.80;;;39.10;80.00;;;;;;5025882;28;20292;-60
2023/07/09 10:03:59;;;;;;;4.78;4.47;;;38.30;76.90;;;;;;5030780;28;20285;-60
2023/07/09 10:06:35;;;;;;;5.47;4.00;;;37.60;83.00;;;;;;5024401;28;20223;-60
2023/07/09 10:09:08;;;;;;;4.97;4.68;;;38.00;83.50;;;;;;5031488;28;20202;-63
2023/07/09 10:11:46;;;;;;;5.05;4.63;;;38.40;85.90;;;;;;5030277;28;20194;-61
2023/07/09 10:14:35;;;;;;;5.95;5.45;;;38.40;85.80;;;;;;5025490;28;20194;-63
2023/07/09 10:17:11;;;;;;;5.63;5.32;;;37.70;83.50;;;;;;5030558;28;20223;-63
2023/07/09 10:19:49;;;;;;;4.78;4.40;;;38.00;86.90;;;;;;5031853;28;20202;-59
2023/07/09 10:22:25;;;;;;;4.53;4.25;;;38.40;83.60;;;;;;5018739;28;20321;-62
2023/07/09 10:25:01;;;;;;;4.93;4.57;;;38.70;87.20;;;;;;5027366;28;20672;-61
2023/07/09 10:27:35;;;;;;;5.07;4.70;;;37.80;84.00;;;;;;5032854;28;20229;-60
2023/07/09 10:30:19;;;;;;;5.50;5.00;;;37.10;89.70;;;;;;5032084;28;20203;-61
2023/07/09 10:32:58;;;;;;;4.80;4.40;;;37.00;84.90;;;;;;5031706;28;20199;-62
2023/07/09 10:35:32;;;;;;;4.28;3.95;;;37.70;83.80;;;;;;5021454;28;20242;-53
2023/07/09 10:38:17;;;;;;;5.30;3.97;;;37.20;80.50;;;;;;5022882;28;20226;-53
2023/07/09 10:40:48;;;;;;;5.28;3.88;;;37.50;81.00;;;;;;5022631;28;20284;-53
2023/07/09 10:43:20;;;;;;;3.63;3.40;;;37.40;84.60;;;;;;5017134;28;20214;-53
2023/07/09 10:45:53;;;;;;;5.70;3.50;;;38.10;84.20;;;;;;5013538;28;20324;-53
2023/07/09 10:48:32;;;;;;;3.92;3.78;;;38.20;77.40;;;;;;5016464;28;20226;-53
2023/07/09 10:51:02;;;;;;;3.85;3.65;;;38.50;77.60;;;;;;5024575;28;20203;-53
2023/07/09 10:53:36;;;;;;;4.80;4.40;;;37.90;81.50;;;;;;5020370;28;20670;-52
2023/07/09 10:56:10;;;;;;;4.75;4.50;;;37.50;83.30;;;;;;5011951;28;20787;-63
2023/07/09 10:58:44;;;;;;;4.13;3.92;;;37.50;81.70;;;;;;5028012;28;20213;-61
2023/07/09 11:01:15;;;;;;;3.78;3.63;;;37.50;84.40;;;;;;5026180;28;20280;-58
2023/07/09 11:03:49;;;;;;;4.28;3.83;;;37.50;82.30;;;;;;5020921;28;20696;-60
2023/07/09 11:06:21;;;;;;;4.30;3.78;;;37.50;80.90;;;;;;5025423;28;20218;-63
2023/07/09 11:08:53;;;;;;;3.47;3.28;;;37.40;81.40;;;;;;5026032;28;20213;-63
2023/07/09 11:11:29;;;;;;;3.30;3.10;;;37.10;85.80;;;;;;5023964;28;20202;-63
2023/07/09 11:14:01;;;;;;;4.20;3.97;;;36.30;86.90;;;;;;5032217;28;20571;-62
2023/07/09 11:16:33;;;;;;;7.40;3.42;;;35.90;85.30;;;;;;5052791;22;20597;-74
2023/07/09 11:19:03;;;;;;;3.95;3.00;;;35.50;84.00;;;;;;5028187;28;20206;-72
2023/07/09 11:21:30;;;;;;;4.22;3.83;;;35.20;82.90;;;;;;5023267;28;20282;-69
2023/07/09 11:24:00;;;;;;;3.97;3.70;;;35.40;83.90;;;;;;5023802;28;20760;-68
2023/07/09 11:26:29;;;;;;;3.25;3.05;;;34.90;82.10;;;;;;5031227;28;20272;-68
2023/07/09 11:29:10;;;;;;;4.25;3.67;;;34.60;83.80;;;;;;5027596;28;20194;-67
2023/07/09 11:31:40;;;;;;;3.53;3.25;;;34.60;85.50;;;;;;5027117;28;20249;-72
2023/07/09 11:34:10;;;;;;;4.35;3.83;;;34.80;87.60;;;;;;5031193;28;20664;-69
2023/07/09 11:36:49;;;;;;;3.85;3.55;;;34.70;87.20;;;;;;5031015;28;20218;-69
2023/07/09 11:39:30;;;;;;;2.78;2.55;;;34.50;79.30;;;;;;5031012;28;20279;-65
2023/07/09 11:41:57;;;;;;;2.63;2.53;;;34.60;78.10;;;;;;5028308;28;20741;-65
2023/07/09 11:44:28;;;;;;;2.63;2.40;;;34.50;81.40;;;;;;5030458;28;20202;-66
2023/07/09 11:47:15;;;;;;;3.03;2.63;;;34.30;77.20;;;;;;5030758;28;20249;-68
2023/07/09 11:49:49;;;;;;;4.53;2.38;;;34.20;82.90;;;;;;5030585;28;20209;-67
2023/07/09 11:52:23;;;;;;;3.05;2.03;;;34.00;81.30;;;;;;5024558;28;20193;-67
2023/07/09 11:54:51;;;;;;;2.78;2.67;;;33.80;77.70;;;;;;5031042;28;20763;-65
2023/07/09 11:57:19;;;;;;;3.15;2.90;;;33.60;80.80;;;;;;5029689;28;20297;-68
2023/07/09 11:59:46;;;;;;;2.83;2.53;;;33.70;83.40;;;;;;5030915;28;20257;-61
2023/07/09 12:02:18;;;;;;;2.00;1.90;;;33.80;81.40;;;;;;5025313;28;20782;-61
2023/07/09 12:04:49;;;;;;;3.25;3.08;;;33.80;80.80;;;;;;5027229;28;20557;-61
2023/07/09 12:07:17;;;;;;;2.95;2.67;;;33.80;82.80;;;;;;5029586;28;20218;-61
2023/07/09 12:09:50;;;;;;;2.72;2.63;;;33.30;78.80;;;;;;5030734;28;20668;-70
2023/07/09 12:12:24;;;;;;;4.65;3.30;;;33.30;79.40;;;;;;5030441;28;20198;-72
2023/07/09 12:14:52;;;;;;;2.30;2.25;;;33.40;79.50;;;;;;5030756;28;20209;-72
2023/07/09 12:17:19;;;;;;;2.70;2.53;;;33.40;81.50;;;;;;5028978;28;20268;-73
2023/07/09 12:19:46;;;;;;;2.40;2.20;;;33.50;76.70;;;;;;5030525;28;20565;-73
2023/07/09 12:22:19;;;;;;;2.40;2.30;;;33.40;77.50;;;;;;5030566;28;20210;-72
2023/07/09 12:24:49;;;;;;;2.72;2.22;;;33.40;79.00;;;;;;5026940;28;20232;-75
2023/07/09 12:27:23;;;;;;;2.75;2.25;;;33.40;78.80;;;;;;5025678;28;20299;-72
2023/07/09 12:29:53;;;;;;;4.68;2.40;;;33.50;80.80;;;;;;5011471;28;20214;-74
2023/07/09 12:32:22;;;;;;;1.88;1.80;;;33.50;78.90;;;;;;5026973;28;20195;-74
2023/07/09 12:34:51;;;;;;;1.92;1.83;;;33.50;73.80;;;;;;5031241;28;20261;-77
2023/07/09 12:37:22;;;;;;;2.22;2.13;;;33.50;78.10;;;;;;5023584;28;20743;-72
2023/07/09 12:39:51;;;;;;;2.42;2.22;;;33.60;75.50;;;;;;5022859;28;20230;-70
2023/07/09 12:42:22;;;;;;;3.50;2.45;;;33.40;76.30;;;;;;5014156;28;20441;-61
2023/07/09 12:44:50;;;;;;;1.85;1.85;;;33.30;75.00;;;;;;5016752;28;20199;-61
2023/07/09 12:47:19;;;;;;;1.85;1.75;;;33.30;74.90;;;;;;5027129;28;20211;-61
2023/07/09 12:49:47;;;;;;;2.30;2.20;;;33.40;74.20;;;;;;5010045;28;20273;-61
2023/07/09 12:52:19;;;;;;;1.52;1.52;;;33.40;75.50;;;;;;5015905;28;20700;-61
2023/07/09 12:54:57;;;;;;;3.05;1.92;;;33.30;76.20;;;;;;5026783;28;20194;-62
2023/07/09 12:57:24;;;;;;;2.85;1.90;;;33.40;75.90;;;;;;5012557;28;20288;-62
2023/07/09 12:59:55;;;;;;;4.88;2.63;;;33.40;76.10;;;;;;5014219;28;20195;-61